Hikarimaru No.17 — JD2956 — position and weather

sailwx.info

Track history (hours):
 
Tides and Currents Weather Stations Pressure Air Temp Water Temp Dewpoint Dewpoint Depression Visibility Wind Speed Wind Dir Waves Ship Positions

Hikarimaru No.17

Last reported at 2014-Nov-24 07:33 UTC. Time now 2014-Nov-24 12:09 UTC.
Position N 34°37' E 134°55'.

Length 105 m; draft 6.5 m.

Type: Tanker. MMSI: 431000984.

Date/timePositionNaut miles runAvg speedWind from/ knotsBaromVisibWave heightAir tempDewpointWater temp
2014-Nov-24 07:33N 34°37' E 134°55'1110.7
2014-Nov-24 06:33N 34°35' E 135°07'1313.1
2014-Nov-24 05:33N 34°33' E 135°23'2 0.3
2014-Nov-23 23:33N 34°33' E 135°21'3 2.7
2014-Nov-23 22:30N 34°32' E 135°18'0 0.0
2014-Nov-23 21:24N 34°32' E 135°18'0 0.0
2014-Nov-23 20:18N 34°32' E 135°18'0 0.0
2014-Nov-23 19:30N 34°32' E 135°18'0 0.0
2014-Nov-23 18:30N 34°32' E 135°18'3 2.9
2014-Nov-23 17:33N 34°33' E 135°15'1514.9
2014-Nov-23 16:33N 34°36' E 134°57'  
2014-Nov-21 03:33N 34°03' E 135°01'1110.5
2014-Nov-21 02:32N 34°09' E 135°11'0 0.0
2014-Nov-20 23:26N 34°09' E 135°11'3 2.6
2014-Nov-20 22:27N 34°10' E 135°08'0 0.0
2014-Nov-20 21:33N 34°10' E 135°08'0 0.0
2014-Nov-20 20:24N 34°10' E 135°08'0 0.0
2014-Nov-20 19:30N 34°10' E 135°08'0 0.0
2014-Nov-20 18:33N 34°10' E 135°08'0 0.0
2014-Nov-20 17:33N 34°10' E 135°08'0 0.0
2014-Nov-20 16:33N 34°10' E 135°08'0 0.0
2014-Nov-20 15:33N 34°10' E 135°08'0 0.0
2014-Nov-20 14:30N 34°10' E 135°08'0 0.0
2014-Nov-20 13:23N 34°10' E 135°08'1012.2
2014-Nov-20 12:33N 34°16' E 134°59'1312.6
2014-Nov-20 11:33N 34°26' E 135°08'1313.4
2014-Nov-20 10:33N 34°33' E 135°22'2 0.3
2014-Nov-20 05:34N 34°33' E 135°20'1312.9
2014-Nov-20 04:33N 34°24' E 135°08'1110.9
2014-Nov-20 03:33N 34°16' E 135°00'1110.6
2014-Nov-20 02:29N 34°09' E 135°11'0 0.0
2014-Nov-19 23:23N 34°09' E 135°11'3 3.1
2014-Nov-19 22:31N 34°10' E 135°08'0 0.0
2014-Nov-19 21:31N 34°10' E 135°08'0 0.0
2014-Nov-19 20:31N 34°10' E 135°08'0 0.0
2014-Nov-19 19:31N 34°10' E 135°08'0 0.0
2014-Nov-19 18:31N 34°10' E 135°08'0 0.0
2014-Nov-19 17:31N 34°10' E 135°08'0 0.0
2014-Nov-19 16:31N 34°10' E 135°08'0 0.0
2014-Nov-19 15:31N 34°10' E 135°08'0 0.0
2014-Nov-19 14:31N 34°10' E 135°08'0 0.0
2014-Nov-19 13:31N 34°10' E 135°08'3 3.2
2014-Nov-19 12:33N 34°12' E 135°05'1111.0
2014-Nov-19 11:32N 34°22' E 135°01'1313.7
2014-Nov-19 10:34N 34°30' E 135°15'9 1.7
2014-Nov-19 05:23N 34°33' E 135°25'2 2.7
2014-Nov-19 04:33N 34°33' E 135°22'2 2.3
2014-Nov-19 03:29N 34°32' E 135°20'0 0.0
2014-Nov-19 02:29N 34°32' E 135°20'0 0.0
2014-Nov-19 01:29N 34°32' E 135°20'0 0.1
2014-Nov-19 00:23N 34°32' E 135°20'0 0.0
2014-Nov-18 23:29N 34°32' E 135°20'0 0.0
2014-Nov-18 22:29N 34°32' E 135°20'0 0.0
2014-Nov-18 21:23N 34°32' E 135°20'0 0.0
2014-Nov-18 20:23N 34°32' E 135°20'0 0.0
2014-Nov-18 19:05N 34°32' E 135°20'0 0.0
2014-Nov-18 18:29N 34°32' E 135°20'0 0.0
2014-Nov-18 17:23N 34°32' E 135°20'0 0.0
2014-Nov-18 16:05N 34°32' E 135°20'0 0.1
2014-Nov-18 15:29N 34°32' E 135°20'0 0.0
2014-Nov-18 14:17N 34°32' E 135°20'0 0.0
2014-Nov-18 13:29N 34°32' E 135°20'0 0.0
2014-Nov-18 12:29N 34°32' E 135°20'0 0.0
2014-Nov-18 11:29N 34°32' E 135°20'0 0.0
2014-Nov-18 10:29N 34°32' E 135°20'0 0.0
2014-Nov-18 09:23N 34°32' E 135°20'0 0.5
2014-Nov-18 08:33N 34°32' E 135°19'1313.0
2014-Nov-18 07:33N 34°35' E 135°04'6 0.3
2014-Nov-17 06:33N 34°37' E 134°57'1313.3
2014-Nov-17 05:34N 34°35' E 135°13'10 1.7
2014-Nov-16 23:23N 34°33' E 135°25'4 4.9
2014-Nov-16 22:31N 34°32' E 135°20'0 0.0
2014-Nov-16 21:25N 34°32' E 135°20'0 0.0
2014-Nov-16 20:13N 34°32' E 135°20'0 0.0
2014-Nov-16 19:19N 34°32' E 135°20'0 0.0
2014-Nov-16 18:31N 34°32' E 135°20'0 0.0
2014-Nov-16 17:25N 34°32' E 135°20'0 0.1
2014-Nov-16 16:19N 34°32' E 135°20'0 0.0
2014-Nov-16 15:31N 34°32' E 135°20'0 0.0
2014-Nov-16 14:31N 34°32' E 135°20'0 0.0
2014-Nov-16 13:19N 34°32' E 135°20'0 0.0
2014-Nov-16 12:13N 34°32' E 135°20'0 0.0
2014-Nov-16 10:25N 34°32' E 135°20'0 0.0
2014-Nov-16 08:13N 34°32' E 135°20'0 0.0
2014-Nov-16 07:25N 34°32' E 135°20'0 0.0
2014-Nov-16 05:19N 34°32' E 135°20'0 0.0
2014-Nov-16 04:25N 34°32' E 135°20'5 5.4
2014-Nov-16 03:33N 34°34' E 135°15'1211.8
2014-Nov-16 02:33N 34°37' E 135°01'  
Track history (hours):
 
Tides and Currents Weather Stations Pressure Air Temp Water Temp Dewpoint Dewpoint Depression Visibility Wind Speed Wind Dir Waves Ship Positions

Hikarimaru No.17

Last reported at 2014-Nov-24 07:33 UTC. Time now 2014-Nov-24 12:09 UTC.
Position N 34°37' E 134°55'.

Length 105 m; draft 6.5 m.

Type: Tanker. MMSI: 431000984.

Date/timePositionNaut miles runAvg speedWind from/ knotsBaromVisibWave heightAir tempDewpointWater temp
2014-Nov-24 07:33N 34°37' E 134°55'1110.7
2014-Nov-24 06:33N 34°35' E 135°07'1313.1
2014-Nov-24 05:33N 34°33' E 135°23'2 0.3
2014-Nov-23 23:33N 34°33' E 135°21'3 2.7
2014-Nov-23 22:30N 34°32' E 135°18'0 0.0
2014-Nov-23 21:24N 34°32' E 135°18'0 0.0
2014-Nov-23 20:18N 34°32' E 135°18'0 0.0
2014-Nov-23 19:30N 34°32' E 135°18'0 0.0
2014-Nov-23 18:30N 34°32' E 135°18'3 2.9
2014-Nov-23 17:33N 34°33' E 135°15'1514.9
2014-Nov-23 16:33N 34°36' E 134°57'  
2014-Nov-21 03:33N 34°03' E 135°01'1110.5
2014-Nov-21 02:32N 34°09' E 135°11'0 0.0
2014-Nov-20 23:26N 34°09' E 135°11'3 2.6
2014-Nov-20 22:27N 34°10' E 135°08'0 0.0
2014-Nov-20 21:33N 34°10' E 135°08'0 0.0
2014-Nov-20 20:24N 34°10' E 135°08'0 0.0
2014-Nov-20 19:30N 34°10' E 135°08'0 0.0
2014-Nov-20 18:33N 34°10' E 135°08'0 0.0
2014-Nov-20 17:33N 34°10' E 135°08'0 0.0
2014-Nov-20 16:33N 34°10' E 135°08'0 0.0
2014-Nov-20 15:33N 34°10' E 135°08'0 0.0
2014-Nov-20 14:30N 34°10' E 135°08'0 0.0
2014-Nov-20 13:23N 34°10' E 135°08'1012.2
2014-Nov-20 12:33N 34°16' E 134°59'1312.6
2014-Nov-20 11:33N 34°26' E 135°08'1313.4
2014-Nov-20 10:33N 34°33' E 135°22'2 0.3
2014-Nov-20 05:34N 34°33' E 135°20'1312.9
2014-Nov-20 04:33N 34°24' E 135°08'1110.9
2014-Nov-20 03:33N 34°16' E 135°00'1110.6
2014-Nov-20 02:29N 34°09' E 135°11'0 0.0
2014-Nov-19 23:23N 34°09' E 135°11'3 3.1
2014-Nov-19 22:31N 34°10' E 135°08'0 0.0
2014-Nov-19 21:31N 34°10' E 135°08'0 0.0
2014-Nov-19 20:31N 34°10' E 135°08'0 0.0
2014-Nov-19 19:31N 34°10' E 135°08'0 0.0
2014-Nov-19 18:31N 34°10' E 135°08'0 0.0
2014-Nov-19 17:31N 34°10' E 135°08'0 0.0
2014-Nov-19 16:31N 34°10' E 135°08'0 0.0
2014-Nov-19 15:31N 34°10' E 135°08'0 0.0
2014-Nov-19 14:31N 34°10' E 135°08'0 0.0
2014-Nov-19 13:31N 34°10' E 135°08'3 3.2
2014-Nov-19 12:33N 34°12' E 135°05'1111.0
2014-Nov-19 11:32N 34°22' E 135°01'1313.7
2014-Nov-19 10:34N 34°30' E 135°15'9 1.7
2014-Nov-19 05:23N 34°33' E 135°25'2 2.7
2014-Nov-19 04:33N 34°33' E 135°22'2 2.3
2014-Nov-19 03:29N 34°32' E 135°20'0 0.0
2014-Nov-19 02:29N 34°32' E 135°20'0 0.0
2014-Nov-19 01:29N 34°32' E 135°20'0 0.1
2014-Nov-19 00:23N 34°32' E 135°20'0 0.0
2014-Nov-18 23:29N 34°32' E 135°20'0 0.0
2014-Nov-18 22:29N 34°32' E 135°20'0 0.0
2014-Nov-18 21:23N 34°32' E 135°20'0 0.0
2014-Nov-18 20:23N 34°32' E 135°20'0 0.0
2014-Nov-18 19:05N 34°32' E 135°20'0 0.0
2014-Nov-18 18:29N 34°32' E 135°20'0 0.0
2014-Nov-18 17:23N 34°32' E 135°20'0 0.0
2014-Nov-18 16:05N 34°32' E 135°20'0 0.1
2014-Nov-18 15:29N 34°32' E 135°20'0 0.0
2014-Nov-18 14:17N 34°32' E 135°20'0 0.0
2014-Nov-18 13:29N 34°32' E 135°20'0 0.0
2014-Nov-18 12:29N 34°32' E 135°20'0 0.0
2014-Nov-18 11:29N 34°32' E 135°20'0 0.0
2014-Nov-18 10:29N 34°32' E 135°20'0 0.0
2014-Nov-18 09:23N 34°32' E 135°20'0 0.5
2014-Nov-18 08:33N 34°32' E 135°19'1313.0
2014-Nov-18 07:33N 34°35' E 135°04'6 0.3
2014-Nov-17 06:33N 34°37' E 134°57'1313.3
2014-Nov-17 05:34N 34°35' E 135°13'10 1.7
2014-Nov-16 23:23N 34°33' E 135°25'4 4.9
2014-Nov-16 22:31N 34°32' E 135°20'0 0.0
2014-Nov-16 21:25N 34°32' E 135°20'0 0.0
2014-Nov-16 20:13N 34°32' E 135°20'0 0.0
2014-Nov-16 19:19N 34°32' E 135°20'0 0.0
2014-Nov-16 18:31N 34°32' E 135°20'0 0.0
2014-Nov-16 17:25N 34°32' E 135°20'0 0.1
2014-Nov-16 16:19N 34°32' E 135°20'0 0.0
2014-Nov-16 15:31N 34°32' E 135°20'0 0.0
2014-Nov-16 14:31N 34°32' E 135°20'0 0.0
2014-Nov-16 13:19N 34°32' E 135°20'0 0.0
2014-Nov-16 12:13N 34°32' E 135°20'0 0.0
2014-Nov-16 10:25N 34°32' E 135°20'0 0.0
2014-Nov-16 08:13N 34°32' E 135°20'0 0.0
2014-Nov-16 07:25N 34°32' E 135°20'0 0.0
2014-Nov-16 05:19N 34°32' E 135°20'0 0.0
2014-Nov-16 04:25N 34°32' E 135°20'5 5.4
2014-Nov-16 03:33N 34°34' E 135°15'1211.8
2014-Nov-16 02:33N 34°37' E 135°01'  

Dump ship's entire track history